Time;durP1;ratioP1;P1;durP2;ratioP2;P2;SDS_P1;SDS_P2;PMS_P1;PMS_P2;Temp;Humidity;BMP_temperature;BMP_pressure;BME280_temperature;BME280_humidity;BME280_pressure;Samples;Min_cycle;Max_cycle;Signal;HPM_P1;HPM_P2
2022/10/22 00:02:19;;;;;;;10.43;5.65;;;;;;;;;;5054157;27;20069;-70
2022/10/22 00:04:49;;;;;;;10.13;5.03;;;;;;;;;;5052990;27;20584;-68
2022/10/22 00:07:17;;;;;;;8.63;5.25;;;;;;;;;;5069909;28;20040;-70
2022/10/22 00:09:44;;;;;;;10.82;6.03;;;;;;;;;;5055305;27;20115;-69
2022/10/22 00:12:11;;;;;;;7.85;4.85;;;;;;;;;;5055709;27;20054;-69
2022/10/22 00:14:38;;;;;;;9.05;5.22;;;;;;;;;;5051810;28;20090;-68
2022/10/22 00:17:06;;;;;;;8.20;5.57;;;;;;;;;;5070562;28;20568;-69
2022/10/22 00:19:32;;;;;;;11.82;5.28;;;;;;;;;;5054740;28;20037;-69
2022/10/22 00:21:59;;;;;;;8.70;5.18;;;;;;;;;;5055970;28;20097;-69
2022/10/22 00:24:26;;;;;;;8.40;4.90;;;;;;;;;;5054086;28;20047;-70
2022/10/22 00:26:52;;;;;;;11.60;5.20;;;;;;;;;;5053663;27;20040;-69
2022/10/22 00:29:19;;;;;;;8.85;5.20;;;;;;;;;;5052149;28;20041;-69
2022/10/22 00:31:49;;;;;;;8.23;4.90;;;;;;;;;;5054601;27;20439;-68
2022/10/22 00:34:17;;;;;;;9.00;5.50;;;;;;;;;;5053663;27;20032;-69
2022/10/22 00:36:43;;;;;;;9.00;5.05;;;;;;;;;;5054119;27;20064;-66
2022/10/22 00:39:11;;;;;;;9.52;5.47;;;;;;;;;;5056242;28;20032;-68
2022/10/22 00:41:38;;;;;;;8.73;5.60;;;;;;;;;;5054148;27;20047;-68
2022/10/22 00:44:06;;;;;;;8.80;5.57;;;;;;;;;;5052520;28;20041;-68
2022/10/22 00:46:32;;;;;;;8.68;5.07;;;;;;;;;;5052166;27;20025;-69
2022/10/22 00:49:02;;;;;;;11.75;5.32;;;;;;;;;;5053874;28;20123;-69
2022/10/22 00:51:29;;;;;;;8.68;5.10;;;;;;;;;;5053812;28;20821;-67
2022/10/22 00:53:59;;;;;;;9.25;5.35;;;;;;;;;;5054651;27;20041;-68
2022/10/22 00:56:26;;;;;;;8.73;5.30;;;;;;;;;;5054014;28;20040;-69
2022/10/22 00:58:55;;;;;;;7.97;4.90;;;;;;;;;;5055370;28;20445;-70
2022/10/22 01:01:23;;;;;;;11.70;5.10;;;;;;;;;;5053771;28;20139;-69
2022/10/22 01:03:50;;;;;;;7.93;5.03;;;;;;;;;;5052673;28;20937;-69
2022/10/22 01:06:28;;;;;;;8.82;5.55;;;;;;;;;;5054121;27;20045;-68
2022/10/22 01:08:58;;;;;;;7.93;5.20;;;;;;;;;;5053447;28;20048;-68
2022/10/22 01:11:35;;;;;;;8.40;5.15;;;;;;;;;;5052486;28;20055;-69
2022/10/22 01:14:02;;;;;;;12.48;5.47;;;;;;;;;;5055792;28;20450;-69
2022/10/22 01:16:37;;;;;;;7.75;4.85;;;;;;;;;;5055142;28;20048;-68
2022/10/22 01:19:09;;;;;;;9.10;5.25;;;;;;;;;;5055794;28;20041;-69
2022/10/22 01:21:41;;;;;;;7.47;4.68;;;;;;;;;;5055157;28;20465;-68
2022/10/22 01:24:20;;;;;;;8.25;4.65;;;;;;;;;;5054069;28;20425;-69
2022/10/22 01:27:19;;;;;;;12.30;4.72;;;;;;;;;;5053724;28;20102;-69
2022/10/22 01:29:48;;;;;;;8.88;5.32;;;;;;;;;;5018285;28;20097;-68
2022/10/22 01:32:16;;;;;;;9.27;4.85;;;;;;;;;;5053005;28;20040;-68
2022/10/22 01:34:44;;;;;;;10.40;5.07;;;;;;;;;;5054610;28;20128;-69
2022/10/22 01:37:13;;;;;;;9.45;5.50;;;;;;;;;;5057804;28;20056;-68
2022/10/22 01:39:41;;;;;;;8.55;5.50;;;;;;;;;;5053798;28;20047;-70
2022/10/22 01:42:08;;;;;;;10.68;5.55;;;;;;;;;;5055254;28;20040;-70
2022/10/22 01:44:38;;;;;;;11.30;5.38;;;;;;;;;;5050693;28;20035;-69
2022/10/22 01:47:14;;;;;;;11.57;6.07;;;;;;;;;;5052748;28;20040;-68
2022/10/22 01:49:41;;;;;;;9.90;5.97;;;;;;;;;;5051741;28;20040;-71
2022/10/22 01:52:26;;;;;;;10.43;5.65;;;;;;;;;;5054616;28;20118;-68
2022/10/22 01:54:59;;;;;;;9.82;5.65;;;;;;;;;;5053069;28;20072;-68
2022/10/22 01:57:36;;;;;;;12.60;6.20;;;;;;;;;;5053107;28;20136;-69
2022/10/22 02:00:13;;;;;;;11.57;5.82;;;;;;;;;;5051376;28;20043;-67
2022/10/22 02:02:46;;;;;;;9.30;5.68;;;;;;;;;;5054406;28;20136;-70
2022/10/22 02:05:24;;;;;;;12.63;6.20;;;;;;;;;;5057543;28;20040;-69
2022/10/22 02:07:53;;;;;;;9.15;5.30;;;;;;;;;;5047363;28;20139;-70
2022/10/22 02:10:21;;;;;;;13.45;5.88;;;;;;;;;;5055654;28;20044;-71
2022/10/22 02:12:53;;;;;;;12.25;6.15;;;;;;;;;;5054457;28;20103;-68
2022/10/22 02:15:21;;;;;;;13.23;6.55;;;;;;;;;;5058551;28;20041;-70
2022/10/22 02:17:49;;;;;;;11.43;6.53;;;;;;;;;;5054982;28;20393;-69
2022/10/22 02:20:15;;;;;;;10.88;6.35;;;;;;;;;;5054274;28;20111;-69
2022/10/22 02:22:42;;;;;;;10.77;6.32;;;;;;;;;;5055706;28;20595;-68
2022/10/22 02:25:09;;;;;;;11.20;6.95;;;;;;;;;;5057417;28;20048;-69
2022/10/22 02:27:44;;;;;;;10.13;6.45;;;;;;;;;;5054695;28;20462;-68
2022/10/22 02:30:14;;;;;;;9.57;6.07;;;;;;;;;;5055842;28;20548;-69
2022/10/22 02:32:43;;;;;;;10.20;5.65;;;;;;;;;;5054998;28;20040;-68
2022/10/22 02:35:13;;;;;;;10.40;6.20;;;;;;;;;;5088484;27;20037;-68
2022/10/22 02:37:40;;;;;;;12.40;5.72;;;;;;;;;;5056405;28;20578;-69
2022/10/22 02:40:07;;;;;;;9.82;5.75;;;;;;;;;;5056508;28;20037;-71
2022/10/22 02:42:35;;;;;;;11.38;6.65;;;;;;;;;;5053851;28;20451;-70
2022/10/22 02:45:02;;;;;;;9.77;5.93;;;;;;;;;;5056344;28;20393;-70
2022/10/22 02:47:28;;;;;;;11.50;5.82;;;;;;;;;;5055164;28;20517;-70
2022/10/22 02:49:55;;;;;;;10.15;6.03;;;;;;;;;;5088755;27;20420;-69
2022/10/22 02:52:21;;;;;;;10.48;6.03;;;;;;;;;;5055898;28;20041;-73
2022/10/22 02:54:48;;;;;;;9.38;5.22;;;;;;;;;;5086988;27;20170;-67
2022/10/22 02:57:15;;;;;;;10.07;5.53;;;;;;;;;;5056382;28;20105;-69
2022/10/22 02:59:41;;;;;;;9.10;4.80;;;;;;;;;;5054959;28;20664;-69
2022/10/22 03:02:08;;;;;;;9.35;5.28;;;;;;;;;;5054183;28;20056;-68
2022/10/22 03:04:34;;;;;;;8.02;5.22;;;;;;;;;;5087337;27;20040;-69
2022/10/22 03:07:01;;;;;;;8.10;5.20;;;;;;;;;;5056684;28;20068;-68
2022/10/22 03:09:28;;;;;;;9.15;5.10;;;;;;;;;;5053613;28;20122;-66
2022/10/22 03:11:54;;;;;;;8.45;5.40;;;;;;;;;;5054685;28;20036;-70
2022/10/22 03:14:21;;;;;;;11.32;5.25;;;;;;;;;;5055620;28;20525;-69
2022/10/22 03:16:48;;;;;;;9.32;5.00;;;;;;;;;;5053630;28;20052;-69
2022/10/22 03:19:14;;;;;;;8.63;5.53;;;;;;;;;;5055720;28;20041;-68
2022/10/22 03:21:45;;;;;;;10.82;5.30;;;;;;;;;;5053032;28;20041;-69
2022/10/22 03:24:15;;;;;;;8.90;5.25;;;;;;;;;;5061687;28;20131;-66
2022/10/22 03:26:43;;;;;;;8.55;5.25;;;;;;;;;;5055876;28;20032;-67
2022/10/22 03:29:11;;;;;;;8.60;5.50;;;;;;;;;;5054325;28;20041;-66
2022/10/22 03:31:37;;;;;;;11.52;6.10;;;;;;;;;;5055978;28;20039;-69
2022/10/22 03:34:04;;;;;;;9.20;5.28;;;;;;;;;;5087133;27;20124;-69
2022/10/22 03:36:31;;;;;;;8.85;5.25;;;;;;;;;;5055165;28;20055;-70
2022/10/22 03:38:59;;;;;;;8.52;4.97;;;;;;;;;;5054643;28;20029;-68
2022/10/22 03:41:26;;;;;;;9.65;5.15;;;;;;;;;;5085828;27;20033;-69
2022/10/22 03:43:52;;;;;;;9.00;5.35;;;;;;;;;;5055241;28;20032;-68
2022/10/22 03:46:19;;;;;;;8.88;5.78;;;;;;;;;;5064204;28;20045;-68
2022/10/22 03:48:48;;;;;;;8.77;5.60;;;;;;;;;;5053885;28;20040;-70
2022/10/22 03:51:15;;;;;;;8.98;5.38;;;;;;;;;;5052841;28;20046;-68
2022/10/22 03:53:41;;;;;;;9.45;5.72;;;;;;;;;;5056096;28;20044;-68
2022/10/22 03:56:09;;;;;;;10.63;5.75;;;;;;;;;;5057009;28;20476;-69
2022/10/22 03:58:36;;;;;;;9.32;5.63;;;;;;;;;;5056025;28;20037;-69
2022/10/22 04:01:06;;;;;;;9.70;5.15;;;;;;;;;;5057446;28;20086;-70
2022/10/22 04:03:33;;;;;;;8.40;5.47;;;;;;;;;;5054435;28;20093;-70
2022/10/22 04:06:18;;;;;;;9.32;5.70;;;;;;;;;;5058464;28;20167;-68
2022/10/22 04:08:45;;;;;;;7.70;5.00;;;;;;;;;;5089086;27;20032;-67
2022/10/22 04:11:12;;;;;;;8.93;5.53;;;;;;;;;;5052308;28;20044;-68
2022/10/22 04:13:39;;;;;;;10.90;6.30;;;;;;;;;;5066005;27;20051;-67
2022/10/22 04:16:09;;;;;;;10.82;5.22;;;;;;;;;;5065756;27;20045;-67
2022/10/22 04:18:36;;;;;;;10.02;6.43;;;;;;;;;;5052822;28;20036;-68
2022/10/22 04:21:03;;;;;;;8.90;5.85;;;;;;;;;;5054624;28;20052;-69
2022/10/22 04:23:30;;;;;;;8.98;5.75;;;;;;;;;;5053890;28;20176;-70
2022/10/22 04:26:00;;;;;;;9.90;4.88;;;;;;;;;;5062001;28;20043;-68
2022/10/22 04:28:27;;;;;;;9.95;5.85;;;;;;;;;;5053856;28;20041;-68
2022/10/22 04:30:53;;;;;;;8.98;5.40;;;;;;;;;;5053482;28;20409;-67
2022/10/22 04:33:20;;;;;;;8.77;5.25;;;;;;;;;;5050223;28;20718;-69
2022/10/22 04:35:47;;;;;;;9.45;5.55;;;;;;;;;;5054474;28;20167;-70
2022/10/22 04:38:15;;;;;;;10.15;5.57;;;;;;;;;;5051934;28;20028;-69
2022/10/22 04:40:42;;;;;;;9.18;5.30;;;;;;;;;;5054704;28;20981;-69
2022/10/22 04:43:08;;;;;;;9.48;6.18;;;;;;;;;;5084751;27;20055;-68
2022/10/22 04:45:36;;;;;;;12.65;6.72;;;;;;;;;;5054488;28;20042;-70
2022/10/22 04:48:02;;;;;;;10.05;6.75;;;;;;;;;;5053036;28;20119;-71
2022/10/22 04:50:29;;;;;;;9.13;6.57;;;;;;;;;;5055358;28;20048;-66
2022/10/22 04:52:56;;;;;;;11.27;7.22;;;;;;;;;;5053185;28;20041;-71
2022/10/22 04:55:22;;;;;;;11.40;6.10;;;;;;;;;;5052724;28;20032;-69
2022/10/22 04:57:49;;;;;;;12.45;6.35;;;;;;;;;;5054771;28;20040;-70
2022/10/22 05:00:16;;;;;;;10.48;6.78;;;;;;;;;;5087866;28;20043;-70
2022/10/22 05:02:43;;;;;;;10.65;6.28;;;;;;;;;;5053929;28;20907;-69
2022/10/22 05:05:10;;;;;;;9.68;6.47;;;;;;;;;;5063514;28;20939;-69
2022/10/22 05:07:37;;;;;;;11.77;6.38;;;;;;;;;;5052815;28;20049;-69
2022/10/22 05:10:04;;;;;;;10.40;6.38;;;;;;;;;;5058600;28;20111;-69
2022/10/22 05:12:30;;;;;;;10.43;6.15;;;;;;;;;;5084432;28;20056;-68
2022/10/22 05:14:57;;;;;;;10.82;6.82;;;;;;;;;;5055469;28;20663;-69
2022/10/22 05:17:23;;;;;;;13.70;6.15;;;;;;;;;;5072756;28;20070;-70
2022/10/22 05:19:50;;;;;;;9.85;6.00;;;;;;;;;;5061279;28;20060;-69
2022/10/22 05:22:17;;;;;;;9.23;5.57;;;;;;;;;;5051807;28;20234;-70
2022/10/22 05:24:43;;;;;;;7.82;4.40;;;;;;;;;;5053112;28;20040;-70
2022/10/22 05:27:10;;;;;;;7.95;4.28;;;;;;;;;;5053157;28;20131;-70
2022/10/22 05:29:36;;;;;;;7.10;4.45;;;;;;;;;;5053782;28;20537;-70
2022/10/22 05:32:03;;;;;;;5.75;3.15;;;;;;;;;;5052040;28;20037;-70
2022/10/22 05:34:32;;;;;;;8.55;3.70;;;;;;;;;;5085498;28;20053;-70
2022/10/22 05:37:16;;;;;;;7.45;3.95;;;;;;;;;;5028494;28;20053;-69
2022/10/22 05:39:43;;;;;;;6.95;3.83;;;;;;;;;;5029039;28;20110;-68
2022/10/22 05:42:09;;;;;;;8.18;4.63;;;;;;;;;;5029215;28;20119;-68
2022/10/22 05:44:36;;;;;;;7.40;4.60;;;;;;;;;;5031307;28;20687;-68
2022/10/22 05:47:02;;;;;;;9.07;4.57;;;;;;;;;;5030443;28;20140;-68
2022/10/22 05:49:29;;;;;;;7.32;4.50;;;;;;;;;;5029341;28;20037;-70
2022/10/22 05:51:55;;;;;;;8.30;4.97;;;;;;;;;;5029043;28;20041;-69
2022/10/22 05:54:22;;;;;;;11.25;5.15;;;;;;;;;;5028522;28;20041;-70
2022/10/22 05:56:49;;;;;;;8.77;4.70;;;;;;;;;;5030114;28;20553;-69
2022/10/22 05:59:15;;;;;;;8.77;4.72;;;;;;;;;;5045859;28;20064;-68
2022/10/22 06:01:42;;;;;;;8.20;4.68;;;;;;;;;;5029366;28;21308;-68
2022/10/22 06:04:10;;;;;;;8.40;4.72;;;;;;;;;;5028963;28;20048;-69
2022/10/22 06:06:39;;;;;;;7.80;4.50;;;;;;;;;;5029678;28;20034;-69
2022/10/22 06:09:05;;;;;;;8.38;4.20;;;;;;;;;;5030182;28;20119;-68
2022/10/22 06:11:33;;;;;;;9.25;5.22;;;;;;;;;;5029425;28;20196;-69
2022/10/22 06:13:59;;;;;;;7.63;4.40;;;;;;;;;;5034520;28;20086;-69
2022/10/22 06:16:28;;;;;;;7.47;4.10;;;;;;;;;;5090000;27;20507;-69
2022/10/22 06:18:55;;;;;;;6.25;3.88;;;;;;;;;;5058387;28;20036;-68
2022/10/22 06:21:21;;;;;;;7.20;3.95;;;;;;;;;;5057718;28;20036;-68
2022/10/22 06:23:48;;;;;;;6.65;3.63;;;;;;;;;;5055364;28;20043;-68
2022/10/22 06:26:16;;;;;;;9.02;3.55;;;;;;;;;;5057076;28;20554;-68
2022/10/22 06:28:43;;;;;;;7.03;3.95;;;;;;;;;;5057079;28;20036;-68
2022/10/22 06:31:10;;;;;;;8.70;4.07;;;;;;;;;;5059430;28;20041;-69
2022/10/22 06:33:41;;;;;;;9.18;4.30;;;;;;;;;;5055577;28;20047;-69
2022/10/22 06:36:09;;;;;;;8.10;3.72;;;;;;;;;;5085207;27;20658;-69
2022/10/22 06:38:35;;;;;;;6.53;3.88;;;;;;;;;;5056174;28;20044;-67
2022/10/22 06:41:03;;;;;;;5.53;3.13;;;;;;;;;;5056062;28;20158;-69
2022/10/22 06:43:30;;;;;;;6.75;3.35;;;;;;;;;;5053456;28;20136;-68
2022/10/22 06:46:03;;;;;;;6.55;3.55;;;;;;;;;;5089288;27;20413;-68
2022/10/22 06:48:29;;;;;;;;;;;;;;;;;;5053617;28;20533;-68
2022/10/22 06:51:00;;;;;;;7.65;4.05;;;;;;;;;;5054086;28;19923;-68
2022/10/22 06:53:27;;;;;;;8.77;3.92;;;;;;;;;;5056460;28;20033;-68
2022/10/22 06:55:54;;;;;;;9.30;4.32;;;;;;;;;;5054196;28;20044;-67
2022/10/22 06:58:20;;;;;;;9.05;4.20;;;;;;;;;;5055394;28;20040;-72
2022/10/22 07:00:47;;;;;;;9.18;4.47;;;;;;;;;;5055761;28;20515;-69
2022/10/22 07:03:14;;;;;;;10.57;4.20;;;;;;;;;;5056041;28;20092;-68
2022/10/22 07:05:41;;;;;;;8.55;4.78;;;;;;;;;;5052615;28;20083;-68
2022/10/22 07:08:08;;;;;;;6.70;2.63;;;;;;;;;;5055092;28;20379;-66
2022/10/22 07:10:35;;;;;;;8.32;3.25;;;;;;;;;;5055382;28;20417;-67
2022/10/22 07:13:01;;;;;;;5.53;2.38;;;;;;;;;;5055385;28;20161;-66
2022/10/22 07:15:28;;;;;;;5.07;1.55;;;;;;;;;;5055380;28;20040;-66
2022/10/22 07:17:55;;;;;;;2.95;1.40;;;;;;;;;;5064062;28;20066;-66
2022/10/22 07:20:21;;;;;;;7.82;1.42;;;;;;;;;;5055909;28;20090;-67
2022/10/22 07:22:48;;;;;;;3.22;1.27;;;;;;;;;;5054725;28;20071;-66
2022/10/22 07:25:14;;;;;;;2.95;1.27;;;;;;;;;;5054236;28;20036;-67
2022/10/22 07:27:41;;;;;;;5.20;1.27;;;;;;;;;;5052871;28;20048;-67
2022/10/22 07:30:08;;;;;;;10.85;1.60;;;;;;;;;;5055047;28;20513;-68
2022/10/22 07:32:35;;;;;;;5.65;1.45;;;;;;;;;;5056172;28;20044;-66
2022/10/22 07:35:03;;;;;;;3.25;1.30;;;;;;;;;;5055280;28;20138;-66
2022/10/22 07:37:30;;;;;;;2.83;0.85;;;;;;;;;;5054346;28;20732;-66
2022/10/22 07:39:56;;;;;;;2.67;1.13;;;;;;;;;;5055768;28;21051;-66
2022/10/22 07:42:23;;;;;;;6.00;1.50;;;;;;;;;;5054005;28;20273;-67
2022/10/22 07:44:49;;;;;;;2.80;0.80;;;;;;;;;;5088766;27;20036;-66
2022/10/22 07:47:16;;;;;;;2.78;1.02;;;;;;;;;;5053496;28;20040;-65
2022/10/22 07:49:43;;;;;;;1.90;0.85;;;;;;;;;;5055021;28;20071;-66
2022/10/22 07:52:09;;;;;;;1.98;0.70;;;;;;;;;;5056174;28;20093;-66
2022/10/22 07:54:36;;;;;;;2.25;0.85;;;;;;;;;;5053683;28;20051;-68
2022/10/22 07:57:02;;;;;;;2.33;0.82;;;;;;;;;;5057401;28;20047;-66
2022/10/22 07:59:29;;;;;;;2.08;0.70;;;;;;;;;;5053743;28;20044;-66
2022/10/22 08:01:56;;;;;;;2.03;0.70;;;;;;;;;;5056200;28;20505;-67
2022/10/22 08:04:22;;;;;;;2.45;0.70;;;;;;;;;;5055910;28;20492;-66
2022/10/22 08:06:49;;;;;;;1.73;0.60;;;;;;;;;;5055419;28;20047;-65
2022/10/22 08:09:15;;;;;;;2.42;0.82;;;;;;;;;;5054213;28;20120;-65
2022/10/22 08:11:42;;;;;;;2.25;0.88;;;;;;;;;;5054121;28;20076;-65
2022/10/22 08:14:09;;;;;;;2.90;1.13;;;;;;;;;;5053157;28;20243;-65
2022/10/22 08:16:35;;;;;;;1.85;0.70;;;;;;;;;;5060343;28;20044;-65
2022/10/22 08:19:02;;;;;;;2.17;0.82;;;;;;;;;;5054061;28;20416;-65
2022/10/22 08:21:28;;;;;;;2.13;0.77;;;;;;;;;;5052889;28;20052;-66
2022/10/22 08:23:55;;;;;;;3.25;1.00;;;;;;;;;;5053371;28;20052;-65
2022/10/22 08:26:21;;;;;;;2.30;0.80;;;;;;;;;;5052608;28;20123;-66
2022/10/22 08:28:48;;;;;;;2.80;0.93;;;;;;;;;;5053312;28;20041;-65
2022/10/22 08:31:15;;;;;;;3.20;1.30;;;;;;;;;;5056089;28;20039;-64
2022/10/22 08:33:42;;;;;;;2.60;0.93;;;;;;;;;;5055466;28;20131;-65
2022/10/22 08:36:09;;;;;;;2.13;0.75;;;;;;;;;;5052906;28;20068;-66
2022/10/22 08:38:35;;;;;;;1.83;0.60;;;;;;;;;;5085238;27;20044;-66
2022/10/22 08:41:19;;;;;;;2.38;0.90;;;;;;;;;;5052754;28;20040;-66
2022/10/22 08:43:46;;;;;;;1.67;0.60;;;;;;;;;;5046655;28;20041;-65
2022/10/22 08:46:25;;;;;;;2.63;0.88;;;;;;;;;;5051456;28;20045;-66
2022/10/22 08:48:55;;;;;;;1.25;0.50;;;;;;;;;;5053933;28;20424;-66
2022/10/22 08:51:25;;;;;;;2.38;0.80;;;;;;;;;;5050815;28;20398;-66
2022/10/22 08:53:52;;;;;;;2.08;0.80;;;;;;;;;;5052718;28;20048;-66
2022/10/22 08:56:18;;;;;;;2.13;0.77;;;;;;;;;;5062168;28;20961;-66
2022/10/22 08:58:49;;;;;;;2.70;1.00;;;;;;;;;;5086339;28;20109;-65
2022/10/22 09:01:22;;;;;;;2.20;0.85;;;;;;;;;;5086465;28;20560;-66
2022/10/22 09:04:27;;;;;;;2.70;1.05;;;;;;;;;;5043719;28;20045;-66
2022/10/22 09:06:55;;;;;;;2.78;1.10;;;;;;;;;;5043717;28;20477;-66
2022/10/22 09:09:21;;;;;;;3.03;1.17;;;;;;;;;;5052313;28;20036;-65
2022/10/22 09:11:50;;;;;;;2.80;1.00;;;;;;;;;;5051800;28;20553;-65
2022/10/22 09:14:21;;;;;;;2.58;0.90;;;;;;;;;;5055793;28;20068;-65
2022/10/22 09:16:57;;;;;;;2.50;0.93;;;;;;;;;;5038504;28;20044;-65
2022/10/22 09:19:29;;;;;;;2.50;1.00;;;;;;;;;;5043508;28;20182;-66
2022/10/22 09:22:00;;;;;;;2.15;1.00;;;;;;;;;;5055723;28;20044;-66
2022/10/22 09:24:35;;;;;;;1.98;0.73;;;;;;;;;;5056226;28;20386;-65
2022/10/22 09:27:02;;;;;;;2.13;0.77;;;;;;;;;;5055542;28;20056;-67
2022/10/22 09:29:32;;;;;;;2.95;1.25;;;;;;;;;;5057010;28;20045;-67
2022/10/22 09:31:58;;;;;;;2.08;0.80;;;;;;;;;;5037240;28;21830;-68
2022/10/22 09:34:25;;;;;;;3.30;1.20;;;;;;;;;;5054176;28;20127;-68
2022/10/22 09:36:59;;;;;;;2.05;0.90;;;;;;;;;;5056779;28;20452;-67
2022/10/22 09:39:25;;;;;;;;;;;;;;;;;;5056200;28;20927;-66
2022/10/22 09:41:51;;;;;;;2.80;1.02;;;;;;;;;;5055554;27;19916;-66
2022/10/22 09:44:18;;;;;;;2.40;0.93;;;;;;;;;;5057953;28;20040;-68
2022/10/22 09:46:45;;;;;;;2.08;0.70;;;;;;;;;;5056439;28;20048;-68
2022/10/22 09:49:16;;;;;;;2.28;0.88;;;;;;;;;;5055161;28;20040;-67
2022/10/22 09:51:49;;;;;;;2.30;0.98;;;;;;;;;;5054994;28;20044;-67
2022/10/22 09:54:18;;;;;;;2.67;1.05;;;;;;;;;;5058759;28;20040;-68
2022/10/22 09:56:58;;;;;;;1.50;0.60;;;;;;;;;;5057012;28;20048;-67
2022/10/22 09:59:27;;;;;;;2.55;0.90;;;;;;;;;;5054464;28;20651;-68
2022/10/22 10:01:58;;;;;;;2.28;0.80;;;;;;;;;;5057987;28;20189;-67
2022/10/22 10:04:25;;;;;;;2.22;0.82;;;;;;;;;;5054401;28;20041;-66
2022/10/22 10:06:54;;;;;;;2.42;0.98;;;;;;;;;;5057386;28;20129;-66
2022/10/22 10:09:22;;;;;;;2.38;0.90;;;;;;;;;;5057515;28;20525;-67
2022/10/22 10:11:53;;;;;;;2.45;0.90;;;;;;;;;;5056735;28;20048;-67
2022/10/22 10:14:25;;;;;;;2.22;0.77;;;;;;;;;;5055198;28;20067;-70
2022/10/22 10:16:58;;;;;;;1.95;0.60;;;;;;;;;;5060002;28;20040;-65
2022/10/22 10:19:24;;;;;;;2.38;0.95;;;;;;;;;;5055451;28;20574;-66
2022/10/22 10:22:09;;;;;;;2.00;0.80;;;;;;;;;;5056238;28;20618;-66
2022/10/22 10:24:51;;;;;;;2.58;0.90;;;;;;;;;;5054082;28;20123;-66
2022/10/22 10:27:30;;;;;;;2.33;0.73;;;;;;;;;;5054143;28;20071;-65
2022/10/22 10:30:14;;;;;;;2.70;0.90;;;;;;;;;;5055934;28;20125;-65
2022/10/22 10:32:59;;;;;;;3.13;0.90;;;;;;;;;;5055419;28;20048;-65
2022/10/22 10:35:44;;;;;;;2.00;0.80;;;;;;;;;;5057608;28;20029;-66
2022/10/22 10:38:20;;;;;;;2.70;0.77;;;;;;;;;;5057152;28;20063;-66
2022/10/22 10:40:59;;;;;;;1.30;0.50;;;;;;;;;;5056683;28;20158;-66
2022/10/22 10:43:34;;;;;;;1.80;0.50;;;;;;;;;;5055485;28;20051;-66
2022/10/22 10:46:15;;;;;;;2.47;0.65;;;;;;;;;;5055347;28;20560;-67
2022/10/22 10:48:44;;;;;;;1.27;0.55;;;;;;;;;;5053677;28;20055;-67
2022/10/22 10:51:29;;;;;;;2.00;0.60;;;;;;;;;;5056903;28;20705;-67
2022/10/22 10:54:16;;;;;;;1.83;0.50;;;;;;;;;;5054262;28;20185;-67
2022/10/22 10:57:02;;;;;;;1.45;0.50;;;;;;;;;;5055130;28;20044;-67
2022/10/22 10:59:47;;;;;;;1.60;0.60;;;;;;;;;;5055167;27;20087;-68
2022/10/22 11:02:13;;;;;;;1.88;0.60;;;;;;;;;;5055603;28;20052;-65
2022/10/22 11:04:58;;;;;;;1.45;0.50;;;;;;;;;;5083324;27;20059;-68
2022/10/22 11:07:57;;;;;;;1.98;0.70;;;;;;;;;;5065350;27;21120;-67
2022/10/22 11:10:45;;;;;;;2.35;1.00;;;;;;;;;;5076423;28;20193;-68
2022/10/22 11:13:16;;;;;;;2.25;0.82;;;;;;;;;;5082372;27;20051;-67
2022/10/22 11:15:46;;;;;;;2.75;0.98;;;;;;;;;;5082986;27;20135;-67
2022/10/22 11:18:15;;;;;;;3.00;1.10;;;;;;;;;;5083550;27;20104;-67
2022/10/22 11:21:03;;;;;;;2.72;1.10;;;;;;;;;;5082249;27;20122;-66
2022/10/22 11:23:40;;;;;;;2.90;1.23;;;;;;;;;;5083822;27;20734;-63
2022/10/22 11:26:10;;;;;;;2.83;0.93;;;;;;;;;;5084865;27;20074;-67
2022/10/22 11:28:47;;;;;;;2.78;1.00;;;;;;;;;;5069416;27;20042;-66
2022/10/22 11:31:15;;;;;;;2.03;0.73;;;;;;;;;;5083496;28;20213;-66
2022/10/22 11:33:47;;;;;;;2.80;1.10;;;;;;;;;;5081259;27;20492;-66
2022/10/22 11:36:14;;;;;;;2.30;0.70;;;;;;;;;;5062517;28;20041;-68
2022/10/22 11:38:41;;;;;;;2.55;1.00;;;;;;;;;;5069604;28;20449;-67
2022/10/22 11:41:16;;;;;;;2.40;0.82;;;;;;;;;;5057220;28;20115;-68
2022/10/22 11:43:55;;;;;;;2.13;0.80;;;;;;;;;;5055100;27;20082;-67
2022/10/22 11:46:21;;;;;;;2.22;0.80;;;;;;;;;;5053780;28;20460;-68
2022/10/22 11:49:01;;;;;;;2.13;0.80;;;;;;;;;;5054583;28;20062;-67
2022/10/22 11:51:37;;;;;;;3.58;1.02;;;;;;;;;;5055595;27;20595;-69
2022/10/22 11:54:22;;;;;;;2.10;0.80;;;;;;;;;;5054433;28;20457;-68
2022/10/22 11:56:52;;;;;;;2.72;0.93;;;;;;;;;;5053236;28;20037;-67
2022/10/22 11:59:51;;;;;;;2.33;0.77;;;;;;;;;;5052615;28;20059;-67
2022/10/22 12:02:23;;;;;;;2.40;0.73;;;;;;;;;;5042166;28;20044;-68
2022/10/22 12:04:49;;;;;;;2.60;0.90;;;;;;;;;;5055566;28;20044;-67
2022/10/22 12:07:31;;;;;;;2.75;1.15;;;;;;;;;;5054155;28;20044;-68
2022/10/22 12:09:58;;;;;;;3.00;1.15;;;;;;;;;;5054660;28;20105;-68
2022/10/22 12:12:27;;;;;;;2.60;0.90;;;;;;;;;;5061702;28;20056;-69
2022/10/22 12:14:58;;;;;;;3.20;1.30;;;;;;;;;;5053492;28;20114;-67
2022/10/22 12:17:25;;;;;;;2.80;0.98;;;;;;;;;;5056107;28;20538;-67
2022/10/22 12:19:59;;;;;;;3.10;1.00;;;;;;;;;;5052840;28;20036;-68
2022/10/22 12:22:28;;;;;;;2.80;1.00;;;;;;;;;;5087623;27;20559;-68
2022/10/22 12:24:56;;;;;;;2.72;1.08;;;;;;;;;;5056135;28;20261;-67
2022/10/22 12:27:43;;;;;;;2.58;0.95;;;;;;;;;;5056596;28;20049;-67
2022/10/22 12:30:22;;;;;;;3.10;1.15;;;;;;;;;;5056291;28;20052;-70
2022/10/22 12:32:52;;;;;;;3.22;1.13;;;;;;;;;;5051858;28;20040;-68
2022/10/22 12:35:20;;;;;;;2.70;0.98;;;;;;;;;;5053179;28;20033;-68
2022/10/22 12:37:55;;;;;;;2.33;0.98;;;;;;;;;;5053965;28;20727;-69
2022/10/22 12:40:29;;;;;;;1.70;0.68;;;;;;;;;;5052888;28;20042;-69
2022/10/22 12:43:00;;;;;;;2.22;0.90;;;;;;;;;;5054707;28;20117;-71
2022/10/22 12:45:29;;;;;;;2.88;1.20;;;;;;;;;;5055838;28;20036;-69
2022/10/22 12:47:57;;;;;;;2.78;1.30;;;;;;;;;;5054255;28;20041;-68
2022/10/22 12:50:26;;;;;;;2.90;1.20;;;;;;;;;;5054949;28;20040;-68
2022/10/22 12:52:54;;;;;;;3.30;1.65;;;;;;;;;;5052042;28;20055;-68
2022/10/22 12:55:24;;;;;;;3.50;1.63;;;;;;;;;;5053919;28;20750;-70
2022/10/22 12:57:51;;;;;;;2.60;1.25;;;;;;;;;;5055534;28;20052;-69
2022/10/22 13:00:25;;;;;;;3.72;1.75;;;;;;;;;;5055298;28;20036;-70
2022/10/22 13:02:52;;;;;;;3.70;1.75;;;;;;;;;;5053632;28;20403;-70
2022/10/22 13:05:37;;;;;;;6.72;1.67;;;;;;;;;;5054077;28;20493;-70
2022/10/22 13:08:04;;;;;;;2.65;1.02;;;;;;;;;;5055333;28;20052;-69
2022/10/22 13:10:32;;;;;;;3.03;1.30;;;;;;;;;;5052950;28;20043;-70
2022/10/22 13:13:02;;;;;;;3.67;1.50;;;;;;;;;;5053070;28;20043;-70
2022/10/22 13:15:28;;;;;;;2.92;1.27;;;;;;;;;;5085140;28;20048;-69
2022/10/22 13:18:13;;;;;;;3.53;1.40;;;;;;;;;;5055945;28;20060;-73
2022/10/22 13:20:50;;;;;;;3.53;1.60;;;;;;;;;;5054581;28;20044;-69
2022/10/22 13:23:18;;;;;;;3.20;1.40;;;;;;;;;;5054940;28;20059;-69
2022/10/22 13:25:55;;;;;;;1.67;0.80;;;;;;;;;;5053182;28;20036;-70
2022/10/22 13:28:25;;;;;;;3.95;1.52;;;;;;;;;;5061740;28;20040;-69
2022/10/22 13:30:56;;;;;;;3.70;1.60;;;;;;;;;;5052121;28;20040;-69
2022/10/22 13:33:32;;;;;;;3.05;1.60;;;;;;;;;;5055327;28;20044;-69
2022/10/22 13:35:58;;;;;;;3.17;1.63;;;;;;;;;;5056357;28;20040;-69
2022/10/22 13:38:26;;;;;;;3.30;1.65;;;;;;;;;;5054631;28;20409;-69
2022/10/22 13:40:53;;;;;;;2.92;1.38;;;;;;;;;;5055658;28;20058;-70
2022/10/22 13:43:20;;;;;;;3.58;1.75;;;;;;;;;;5054308;28;20070;-69
2022/10/22 13:45:47;;;;;;;3.80;1.90;;;;;;;;;;5054596;28;20048;-68
2022/10/22 13:48:20;;;;;;;2.63;1.10;;;;;;;;;;5054192;28;20059;-68
2022/10/22 13:50:47;;;;;;;3.75;1.70;;;;;;;;;;5054772;28;20141;-68
2022/10/22 13:53:32;;;;;;;3.22;1.42;;;;;;;;;;5053077;28;20047;-69
2022/10/22 13:55:59;;;;;;;3.38;1.40;;;;;;;;;;5052405;28;20122;-69
2022/10/22 13:58:26;;;;;;;3.67;1.90;;;;;;;;;;5053184;28;20037;-68
2022/10/22 14:00:54;;;;;;;4.47;2.10;;;;;;;;;;5056426;28;20051;-67
2022/10/22 14:03:21;;;;;;;4.00;1.98;;;;;;;;;;5057172;28;20745;-68
2022/10/22 14:05:48;;;;;;;3.40;1.70;;;;;;;;;;5058172;28;20074;-68
2022/10/22 14:08:17;;;;;;;4.13;2.13;;;;;;;;;;5056874;28;20055;-67
2022/10/22 14:10:44;;;;;;;3.72;1.90;;;;;;;;;;5056512;28;20056;-68
2022/10/22 14:13:10;;;;;;;4.28;2.22;;;;;;;;;;5056592;28;20394;-68
2022/10/22 14:15:37;;;;;;;4.60;2.63;;;;;;;;;;5057799;28;20044;-69
2022/10/22 14:18:05;;;;;;;5.15;2.53;;;;;;;;;;5057595;28;20087;-67
2022/10/22 14:20:33;;;;;;;5.28;2.70;;;;;;;;;;5054106;28;20044;-68
2022/10/22 14:23:19;;;;;;;5.65;2.80;;;;;;;;;;5088334;27;20049;-68
2022/10/22 14:25:46;;;;;;;6.50;3.80;;;;;;;;;;5054150;28;20080;-69
2022/10/22 14:28:13;;;;;;;4.93;2.30;;;;;;;;;;5060353;28;20033;-68
2022/10/22 14:30:40;;;;;;;5.80;3.47;;;;;;;;;;5056010;28;20047;-68
2022/10/22 14:33:14;;;;;;;8.18;4.03;;;;;;;;;;5056448;28;20036;-69
2022/10/22 14:35:41;;;;;;;6.82;4.20;;;;;;;;;;5056986;28;20047;-68
2022/10/22 14:38:08;;;;;;;5.72;3.25;;;;;;;;;;5088267;27;20048;-67
2022/10/22 14:40:34;;;;;;;6.47;3.83;;;;;;;;;;5087766;27;20036;-68
2022/10/22 14:43:01;;;;;;;9.13;4.35;;;;;;;;;;5055460;28;20033;-67
2022/10/22 14:45:27;;;;;;;6.30;3.25;;;;;;;;;;5056154;28;20033;-68
2022/10/22 14:47:54;;;;;;;8.05;3.53;;;;;;;;;;5056070;28;20043;-67
2022/10/22 14:50:21;;;;;;;9.57;4.10;;;;;;;;;;5054092;28;20040;-68
2022/10/22 14:52:48;;;;;;;8.25;3.53;;;;;;;;;;5054018;28;20040;-67
2022/10/22 14:55:15;;;;;;;8.25;4.47;;;;;;;;;;5057686;28;20409;-66
2022/10/22 14:57:42;;;;;;;9.60;4.63;;;;;;;;;;5054110;28;20044;-67